Terminal Aerodrome Forecast
Issued by NWS

Home | Current Version | Previous Version | Graphics & Text | Print | Product List | Glossary On
Versions: 1 2 3 4 5 6 7 8 9 10 11 12 13 14 15 16 17 18 19 20 21 22 23 24 25
000
FTUS43 KBIS 190934 AAA
TAFJMS
TAF AMD
KJMS 190934Z 1910/2006 12008KT 1/2SM FG VV002
     FM191300 14017KT 3/4SM BR OVC003
     FM191500 15019G28KT P6SM OVC008
     FM191700 16021G29KT P6SM BKN090
     FM192100 16020G28KT P6SM VCTS BKN110CB
     FM200000 18016G24KT 5SM SHRA BR VCTS OVC080CB
     FM200300 24010KT P6SM -SHRA OVC050=

USA.gov is the U.S. government's official web portal to all federal, state and local government web resources and services.